createdAt,value
2023-03-08T00:02:25.067Z,4.80
2023-03-08T00:04:58.425Z,4.47
2023-03-08T00:07:31.805Z,4.50
2023-03-08T00:10:02.913Z,4.03
2023-03-08T00:12:33.687Z,3.92
2023-03-08T00:15:04.881Z,3.25
2023-03-08T00:17:40.593Z,3.08
2023-03-08T00:20:14.341Z,3.20
2023-03-08T00:22:56.395Z,4.30
2023-03-08T00:25:30.571Z,2.50
2023-03-08T00:28:01.350Z,3.15
2023-03-08T00:30:39.106Z,2.95
2023-03-08T00:33:15.744Z,3.20
2023-03-08T00:36:00.116Z,3.35
2023-03-08T00:38:35.210Z,3.67
2023-03-08T00:41:09.177Z,4.45
2023-03-08T00:43:44.314Z,3.75
2023-03-08T00:46:16.085Z,3.22
2023-03-08T00:48:49.216Z,3.50
2023-03-08T00:51:22.006Z,4.45
2023-03-08T00:53:56.673Z,4.60
2023-03-08T00:56:27.875Z,6.93
2023-03-08T01:01:32.354Z,6.28
2023-03-08T01:04:04.236Z,5.30
2023-03-08T01:06:36.459Z,6.38
2023-03-08T01:09:10.157Z,4.75
2023-03-08T01:11:44.538Z,5.75
2023-03-08T01:14:17.546Z,4.75
2023-03-08T01:16:48.593Z,4.60
2023-03-08T01:19:21.076Z,6.50
2023-03-08T01:21:52.211Z,5.18
2023-03-08T01:24:27.213Z,4.28
2023-03-08T01:27:01.204Z,6.95
2023-03-08T01:29:37.524Z,7.20
2023-03-08T01:32:10.120Z,8.30
2023-03-08T01:34:41.641Z,7.28
2023-03-08T01:37:13.961Z,6.32
2023-03-08T01:39:48.527Z,4.75
2023-03-08T01:42:19.833Z,4.03
2023-03-08T01:45:02.771Z,4.03
2023-03-08T01:47:41.320Z,4.68
2023-03-08T01:50:33.427Z,4.22
2023-03-08T01:53:05.498Z,5.50
2023-03-08T01:55:39.172Z,5.03
2023-03-08T01:58:10.592Z,5.18
2023-03-08T02:00:42.296Z,5.50
2023-03-08T02:03:17.086Z,6.25
2023-03-08T02:05:48.141Z,5.80
2023-03-08T02:08:23.585Z,4.70
2023-03-08T02:10:59.973Z,5.40
2023-03-08T02:13:33.035Z,5.10
2023-03-08T02:16:10.561Z,4.88
2023-03-08T02:18:55.690Z,6.13
2023-03-08T02:21:31.709Z,6.05
2023-03-08T02:24:23.536Z,5.90
2023-03-08T02:27:05.272Z,5.93
2023-03-08T02:29:38.529Z,5.95
2023-03-08T02:32:10.051Z,6.00
2023-03-08T02:34:48.627Z,6.50
2023-03-08T02:37:22.467Z,6.75
2023-03-08T02:39:57.414Z,6.72
2023-03-08T02:42:28.292Z,6.53
2023-03-08T02:44:59.502Z,7.43
2023-03-08T02:50:04.281Z,6.47
2023-03-08T02:52:35.145Z,7.72
2023-03-08T02:55:14.392Z,7.53
2023-03-08T02:57:45.268Z,7.85
2023-03-08T03:00:18.311Z,7.10
2023-03-08T03:02:49.226Z,7.30
2023-03-08T03:05:20.622Z,7.20
2023-03-08T03:07:55.706Z,7.72
2023-03-08T03:10:30.953Z,6.68
2023-03-08T03:13:04.118Z,8.10
2023-03-08T03:15:37.184Z,7.40
2023-03-08T03:18:15.742Z,8.23
2023-03-08T03:20:47.032Z,7.72
2023-03-08T03:23:18.041Z,8.52
2023-03-08T03:26:00.012Z,7.90
2023-03-08T03:28:31.041Z,9.95
2023-03-08T03:31:03.750Z,10.13
2023-03-08T03:33:34.757Z,13.07
2023-03-08T03:36:08.217Z,10.43
2023-03-08T03:38:41.290Z,11.15
2023-03-08T03:41:17.754Z,15.60
2023-03-08T03:43:52.960Z,11.15
2023-03-08T03:46:24.704Z,11.43
2023-03-08T03:48:59.091Z,11.88
2023-03-08T03:51:38.996Z,11.55
2023-03-08T03:54:31.759Z,10.63
2023-03-08T03:57:08.828Z,11.88
2023-03-08T03:59:45.542Z,11.38
2023-03-08T04:02:16.854Z,11.02
2023-03-08T04:04:54.714Z,11.38
2023-03-08T04:07:30.399Z,13.07
2023-03-08T04:10:04.265Z,14.18
2023-03-08T04:12:42.184Z,13.13
2023-03-08T04:15:13.674Z,12.18
2023-03-08T04:17:45.136Z,13.48
2023-03-08T04:20:17.160Z,14.60
2023-03-08T04:22:56.546Z,13.63
2023-03-08T04:25:33.474Z,12.32
2023-03-08T04:28:08.611Z,13.45
2023-03-08T04:30:43.160Z,12.60
2023-03-08T04:33:15.539Z,14.80
2023-03-08T04:35:53.484Z,14.65
2023-03-08T04:38:30.361Z,12.85
2023-03-08T04:41:10.483Z,15.18
2023-03-08T04:44:01.676Z,12.52
2023-03-08T04:46:43.535Z,14.40
2023-03-08T04:49:20.541Z,13.05
2023-03-08T04:51:57.008Z,11.15
2023-03-08T04:54:30.461Z,12.23
2023-03-08T04:57:11.168Z,13.73
2023-03-08T04:59:46.530Z,14.40
2023-03-08T05:02:20.591Z,14.95
2023-03-08T05:04:54.943Z,14.05
2023-03-08T05:07:26.184Z,13.48
2023-03-08T05:10:03.619Z,13.80
2023-03-08T05:12:42.200Z,12.18
2023-03-08T05:15:16.556Z,12.27
2023-03-08T05:17:50.366Z,14.63
2023-03-08T05:20:22.160Z,11.98
2023-03-08T05:22:59.023Z,13.43
2023-03-08T05:25:37.121Z,13.65
2023-03-08T05:28:08.017Z,16.20
2023-03-08T05:30:46.258Z,14.52
2023-03-08T05:33:20.978Z,14.32
2023-03-08T05:35:57.328Z,14.73
2023-03-08T05:38:32.470Z,15.45
2023-03-08T05:41:05.460Z,15.45
2023-03-08T05:43:39.203Z,15.38
2023-03-08T05:46:17.482Z,12.68
2023-03-08T05:48:55.047Z,11.98
2023-03-08T05:51:26.602Z,12.05
2023-03-08T05:53:59.269Z,11.90
2023-03-08T05:56:31.192Z,13.13
2023-03-08T05:59:12.463Z,11.00
2023-03-08T06:01:49.231Z,12.20
2023-03-08T06:04:42.511Z,13.98
2023-03-08T06:07:15.348Z,12.98
2023-03-08T06:09:53.215Z,13.57
2023-03-08T06:12:27.847Z,12.50
2023-03-08T06:15:06.267Z,13.98
2023-03-08T06:17:48.125Z,15.38
2023-03-08T06:20:22.995Z,15.43
2023-03-08T06:22:57.382Z,13.55
2023-03-08T06:25:35.967Z,15.20
2023-03-08T06:28:08.628Z,14.88
2023-03-08T06:30:43.131Z,14.55
2023-03-08T06:33:38.653Z,14.18
2023-03-08T06:36:19.988Z,12.68
2023-03-08T06:39:24.662Z,11.38
2023-03-08T06:42:04.400Z,12.23
2023-03-08T06:44:45.123Z,12.65
2023-03-08T06:47:20.990Z,16.88
2023-03-08T06:50:18.135Z,13.45
2023-03-08T06:57:08.947Z,10.80
2023-03-08T07:00:56.299Z,13.25
2023-03-08T07:04:24.235Z,11.75
2023-03-08T07:07:47.760Z,9.35
2023-03-08T07:11:53.022Z,10.00
2023-03-08T07:15:17.541Z,9.23
2023-03-08T07:30:26.889Z,7.82
2023-03-08T07:33:22.448Z,8.50
2023-03-08T07:36:12.078Z,8.13
2023-03-08T07:38:55.719Z,6.70
2023-03-08T07:41:47.656Z,7.18
2023-03-08T07:44:24.428Z,8.18
2023-03-08T07:47:22.200Z,6.68
2023-03-08T07:50:18.803Z,7.65
2023-03-08T07:53:25.946Z,8.55
2023-03-08T07:57:11.349Z,7.57
2023-03-08T08:00:55.260Z,31.55
2023-03-08T08:04:25.300Z,21.10
2023-03-08T08:08:31.726Z,12.00
2023-03-08T08:11:21.055Z,9.45
2023-03-08T08:18:10.859Z,46.38
2023-03-08T08:33:11.965Z,6.18
2023-03-08T08:35:44.223Z,10.63
2023-03-08T08:38:17.889Z,25.73
2023-03-08T08:40:49.843Z,26.88
2023-03-08T08:43:22.322Z,11.35
2023-03-08T08:45:59.490Z,39.38
2023-03-08T08:48:35.535Z,11.85
2023-03-08T08:51:08.788Z,9.70
2023-03-08T08:53:40.406Z,10.50
2023-03-08T08:56:26.644Z,25.38
2023-03-08T08:59:00.322Z,21.10
2023-03-08T09:01:34.796Z,12.10
2023-03-08T09:04:09.118Z,22.75
2023-03-08T09:06:40.959Z,8.13
2023-03-08T09:09:12.516Z,7.57
2023-03-08T09:11:54.169Z,15.80
2023-03-08T09:14:27.313Z,12.93
2023-03-08T09:16:59.798Z,10.98
2023-03-08T09:19:36.829Z,8.20
2023-03-08T09:22:09.782Z,10.38
2023-03-08T09:24:41.412Z,6.75
2023-03-08T09:27:13.178Z,17.92
2023-03-08T09:29:45.279Z,8.52
2023-03-08T09:32:16.912Z,9.90
2023-03-08T09:34:52.681Z,6.20
2023-03-08T09:37:24.608Z,5.78
2023-03-08T09:39:55.707Z,6.03
2023-03-08T09:42:29.843Z,7.93
2023-03-08T09:45:22.902Z,3.53
2023-03-08T09:48:05.437Z,4.75
2023-03-08T09:50:45.743Z,3.30
2023-03-08T09:53:27.332Z,4.22
2023-03-08T09:56:01.088Z,4.50
2023-03-08T09:58:37.884Z,5.65
2023-03-08T10:01:22.960Z,3.90
2023-03-08T10:04:18.130Z,3.97
2023-03-08T10:07:03.477Z,9.68
2023-03-08T10:09:38.296Z,10.55
2023-03-08T10:12:22.366Z,10.00
2023-03-08T10:14:57.710Z,7.93
2023-03-08T10:17:37.598Z,9.18
2023-03-08T10:20:17.637Z,16.45
2023-03-08T10:22:56.951Z,11.00
2023-03-08T10:25:31.964Z,15.13
2023-03-08T10:28:04.823Z,7.40
2023-03-08T10:30:38.712Z,4.40
2023-03-08T10:33:12.567Z,4.70
2023-03-08T10:35:57.902Z,5.15
2023-03-08T10:38:34.432Z,5.05
2023-03-08T10:41:07.498Z,5.10
2023-03-08T10:43:42.828Z,6.82
2023-03-08T10:46:17.646Z,8.40
2023-03-08T10:48:49.628Z,5.30
2023-03-08T10:51:23.748Z,11.10
2023-03-08T10:54:03.072Z,5.07
2023-03-08T10:56:39.805Z,6.18
2023-03-08T10:59:22.364Z,5.03
2023-03-08T11:01:55.985Z,5.10
2023-03-08T11:04:28.521Z,4.00
2023-03-08T11:07:00.030Z,3.65
2023-03-08T11:09:34.792Z,4.40
2023-03-08T11:12:06.404Z,5.93
2023-03-08T11:14:37.442Z,5.75
2023-03-08T11:17:18.793Z,3.80
2023-03-08T11:20:13.931Z,3.38
2023-03-08T11:23:10.228Z,4.28
2023-03-08T11:25:49.162Z,4.32
2023-03-08T11:28:42.257Z,3.80
2023-03-08T11:31:27.258Z,4.55
2023-03-08T11:34:32.041Z,4.95
2023-03-08T11:37:09.044Z,2.20
2023-03-08T11:39:45.985Z,3.22
2023-03-08T11:42:27.261Z,4.57
2023-03-08T11:45:11.709Z,10.13
2023-03-08T11:47:58.318Z,3.08
2023-03-08T11:50:33.787Z,3.45
2023-03-08T11:53:18.096Z,5.78
2023-03-08T11:56:02.197Z,2.92
2023-03-08T11:58:40.568Z,2.63
2023-03-08T12:01:21.209Z,4.45
2023-03-08T12:03:56.303Z,4.60
2023-03-08T12:06:32.893Z,4.03
2023-03-08T12:09:09.630Z,2.63
2023-03-08T12:11:45.928Z,4.80
2023-03-08T12:14:24.281Z,2.95
2023-03-08T12:17:02.942Z,4.63
2023-03-08T12:19:40.200Z,4.53
2023-03-08T12:22:33.755Z,5.20
2023-03-08T12:25:12.881Z,5.85
2023-03-08T12:27:49.435Z,4.07
2023-03-08T12:30:31.567Z,6.43
2023-03-08T12:33:06.047Z,3.55
2023-03-08T12:35:38.755Z,4.18
2023-03-08T12:38:33.242Z,5.95
2023-03-08T12:41:05.238Z,10.00
2023-03-08T12:43:38.913Z,28.80
2023-03-08T12:46:14.310Z,20.83
2023-03-08T12:48:53.918Z,12.75
2023-03-08T12:51:27.265Z,11.30
2023-03-08T12:54:04.788Z,36.88
2023-03-08T12:56:39.660Z,12.20
2023-03-08T12:59:29.546Z,17.25
2023-03-08T13:02:25.796Z,24.35
2023-03-08T13:05:20.605Z,36.60
2023-03-08T13:08:01.795Z,93.07
2023-03-08T13:10:36.663Z,19.60
2023-03-08T13:13:38.333Z,6.40
2023-03-08T13:16:23.618Z,6.75
2023-03-08T13:19:06.076Z,8.80
2023-03-08T13:21:43.159Z,19.40
2023-03-08T13:24:21.885Z,15.57
2023-03-08T13:27:12.401Z,25.88
2023-03-08T13:29:46.510Z,37.00
2023-03-08T13:32:20.484Z,29.88
2023-03-08T13:35:02.127Z,14.05
2023-03-08T13:37:34.192Z,19.83
2023-03-08T13:40:08.009Z,16.13
2023-03-08T13:42:39.200Z,46.65
2023-03-08T13:45:12.029Z,58.22
2023-03-08T13:47:43.319Z,23.88
2023-03-08T13:52:53.421Z,20.13
2023-03-08T13:55:28.386Z,15.13
2023-03-08T13:58:00.701Z,17.08
2023-03-08T14:00:34.145Z,19.05
2023-03-08T14:03:09.414Z,12.13
2023-03-08T14:05:47.206Z,11.10
2023-03-08T14:08:24.570Z,8.90
2023-03-08T14:10:59.759Z,13.10
2023-03-08T14:13:39.141Z,12.60
2023-03-08T14:16:11.560Z,28.90
2023-03-08T14:18:44.762Z,30.15
2023-03-08T14:21:21.569Z,20.13
2023-03-08T14:23:55.874Z,27.48
2023-03-08T14:26:29.235Z,17.27
2023-03-08T14:29:17.835Z,9.05
2023-03-08T14:32:07.656Z,8.68
2023-03-08T14:34:41.783Z,12.15
2023-03-08T14:37:25.869Z,12.82
2023-03-08T14:39:58.830Z,13.30
2023-03-08T14:42:35.840Z,16.83
2023-03-08T14:45:10.427Z,14.88
2023-03-08T14:47:41.297Z,105.55
2023-03-08T14:50:23.534Z,33.42
2023-03-08T14:52:59.410Z,19.45
2023-03-08T14:55:32.178Z,21.63
2023-03-08T14:58:05.409Z,29.23
2023-03-08T15:00:36.555Z,18.60
2023-03-08T15:03:07.670Z,14.93
2023-03-08T15:05:40.068Z,19.23
2023-03-08T15:08:14.880Z,18.42
2023-03-08T15:10:46.588Z,19.90
2023-03-08T15:13:19.685Z,19.70
2023-03-08T15:15:51.251Z,27.70
2023-03-08T15:18:22.023Z,89.82
2023-03-08T15:20:54.578Z,20.05
2023-03-08T15:23:30.759Z,90.28
2023-03-08T15:26:04.239Z,16.05
2023-03-08T15:28:35.213Z,66.32
2023-03-08T15:31:06.525Z,21.60
2023-03-08T15:38:42.641Z,24.40
2023-03-08T15:41:15.332Z,18.08
2023-03-08T15:43:46.708Z,27.40
2023-03-08T15:46:18.933Z,21.98
2023-03-08T15:48:51.245Z,75.63
2023-03-08T15:51:23.707Z,34.72
2023-03-08T15:53:57.116Z,34.33
2023-03-08T15:56:28.977Z,34.67
2023-03-08T15:59:00.163Z,110.43
2023-03-08T16:01:33.446Z,36.05
2023-03-08T16:04:04.684Z,28.80
2023-03-08T16:06:36.584Z,28.40
2023-03-08T16:09:10.175Z,31.98
2023-03-08T16:11:45.186Z,66.10
2023-03-08T16:14:18.905Z,113.35
2023-03-08T16:16:50.099Z,49.78
2023-03-08T16:19:20.864Z,36.67
2023-03-08T16:21:53.860Z,28.20
2023-03-08T16:24:27.436Z,29.42
2023-03-08T16:26:59.552Z,35.83
2023-03-08T16:29:33.368Z,34.50
2023-03-08T16:32:04.822Z,36.97
2023-03-08T16:34:35.791Z,36.38
2023-03-08T16:37:07.110Z,38.80
2023-03-08T16:42:15.390Z,40.35
2023-03-08T16:44:52.501Z,86.15
2023-03-08T16:47:25.438Z,74.75
2023-03-08T16:49:56.677Z,55.25
2023-03-08T16:52:28.125Z,40.15
2023-03-08T16:55:02.171Z,41.38
2023-03-08T16:57:33.485Z,151.10
2023-03-08T17:02:35.998Z,62.65
2023-03-08T17:05:10.863Z,60.50
2023-03-08T17:07:42.745Z,132.25
2023-03-08T17:10:16.917Z,107.35
2023-03-08T17:12:48.294Z,74.47
2023-03-08T17:15:19.204Z,79.43
2023-03-08T17:17:51.174Z,84.18
2023-03-08T17:20:22.455Z,81.88
2023-03-08T17:22:54.147Z,84.28
2023-03-08T17:25:28.326Z,79.93
2023-03-08T17:27:59.958Z,96.43
2023-03-08T17:30:30.835Z,85.47
2023-03-08T17:33:03.907Z,92.88
2023-03-08T17:35:35.713Z,103.05
2023-03-08T17:38:07.612Z,124.55
2023-03-08T17:40:43.033Z,117.65
2023-03-08T17:43:15.284Z,125.35
2023-03-08T17:45:46.348Z,143.13
2023-03-08T17:48:18.502Z,133.30
2023-03-08T17:50:51.446Z,94.30
2023-03-08T17:53:27.202Z,66.35
2023-03-08T17:56:02.607Z,60.03
2023-03-08T17:58:35.103Z,54.45
2023-03-08T18:01:14.822Z,70.40
2023-03-08T18:03:47.105Z,61.58
2023-03-08T18:06:25.325Z,60.25
2023-03-08T18:08:57.064Z,68.65
2023-03-08T18:11:31.534Z,71.88
2023-03-08T18:14:03.202Z,63.17
2023-03-08T18:16:35.540Z,78.47
2023-03-08T18:19:09.358Z,132.13
2023-03-08T18:21:41.633Z,177.90
2023-03-08T18:24:15.690Z,156.95
2023-03-08T18:26:50.060Z,109.25
2023-03-08T18:29:22.281Z,112.70
2023-03-08T18:31:53.297Z,107.13
2023-03-08T18:34:25.080Z,91.07
2023-03-08T18:36:59.017Z,100.32
2023-03-08T18:39:30.627Z,91.10
2023-03-08T18:42:04.965Z,54.17
2023-03-08T18:44:38.978Z,41.72
2023-03-08T18:47:11.760Z,40.00
2023-03-08T18:49:44.954Z,39.03
2023-03-08T18:52:16.913Z,36.13
2023-03-08T18:54:50.088Z,35.80
2023-03-08T18:57:23.968Z,37.10
2023-03-08T18:59:57.242Z,37.00
2023-03-08T19:02:29.521Z,34.47
2023-03-08T19:05:02.251Z,34.88
2023-03-08T19:07:33.632Z,31.73
2023-03-08T19:10:05.396Z,33.28
2023-03-08T19:12:40.539Z,35.80
2023-03-08T19:15:14.546Z,33.67
2023-03-08T19:17:46.145Z,36.53
2023-03-08T19:20:18.238Z,36.22
2023-03-08T19:22:49.992Z,45.13
2023-03-08T19:25:22.013Z,55.95
2023-03-08T19:27:56.438Z,49.78
2023-03-08T19:30:29.321Z,50.58
2023-03-08T19:33:00.880Z,65.53
2023-03-08T19:35:32.841Z,70.25
2023-03-08T19:38:04.356Z,83.15
2023-03-08T19:40:38.027Z,93.55
2023-03-08T19:43:12.693Z,160.80
2023-03-08T19:45:53.108Z,157.32
2023-03-08T19:48:24.920Z,114.47
2023-03-08T19:50:56.812Z,100.80
2023-03-08T19:53:28.347Z,71.72
2023-03-08T19:56:00.737Z,55.47
2023-03-08T19:58:35.403Z,43.55
2023-03-08T20:01:10.610Z,40.75
2023-03-08T20:03:43.675Z,42.13
2023-03-08T20:06:25.375Z,35.35
2023-03-08T20:08:57.534Z,33.88
2023-03-08T20:11:31.389Z,33.10
2023-03-08T20:14:06.562Z,39.78
2023-03-08T20:16:39.327Z,33.88
2023-03-08T20:19:11.733Z,34.05
2023-03-08T20:21:43.901Z,34.65
2023-03-08T20:24:18.801Z,34.97
2023-03-08T20:26:53.218Z,35.72
2023-03-08T20:29:27.534Z,37.20
2023-03-08T20:31:59.408Z,33.20
2023-03-08T20:34:32.835Z,32.65
2023-03-08T20:37:05.833Z,31.35
2023-03-08T20:39:37.502Z,34.53
2023-03-08T20:42:09.893Z,36.35
2023-03-08T20:44:44.596Z,35.60
2023-03-08T20:47:17.185Z,34.88
2023-03-08T20:49:49.216Z,33.85
2023-03-08T20:52:21.285Z,32.47
2023-03-08T20:54:52.342Z,33.33
2023-03-08T20:57:26.399Z,31.70
2023-03-08T21:00:00.988Z,29.02
2023-03-08T21:02:33.331Z,26.35
2023-03-08T21:05:05.663Z,28.00
2023-03-08T21:07:40.929Z,27.77
2023-03-08T21:10:15.261Z,27.27
2023-03-08T21:12:47.399Z,31.27
2023-03-08T21:15:22.099Z,23.50
2023-03-08T21:17:55.229Z,22.23
2023-03-08T21:20:26.922Z,21.63
2023-03-08T21:22:59.904Z,20.45
2023-03-08T21:25:34.730Z,18.83
2023-03-08T21:28:07.311Z,19.75
2023-03-08T21:30:45.180Z,20.63
2023-03-08T21:33:17.285Z,25.38
2023-03-08T21:35:48.935Z,27.63
2023-03-08T21:38:22.246Z,24.23
2023-03-08T21:40:55.318Z,23.77
2023-03-08T21:43:27.275Z,24.58
2023-03-08T21:46:00.972Z,27.83
2023-03-08T21:48:33.159Z,27.50
2023-03-08T21:51:07.424Z,25.65
2023-03-08T21:53:39.529Z,25.38
2023-03-08T21:56:12.007Z,25.60
2023-03-08T21:58:44.910Z,26.45
2023-03-08T22:01:27.097Z,25.83
2023-03-08T22:03:59.421Z,23.13
2023-03-08T22:06:31.668Z,22.58
2023-03-08T22:09:04.417Z,22.15
2023-03-08T22:11:36.334Z,24.88
2023-03-08T22:14:10.353Z,22.90
2023-03-08T22:16:44.287Z,26.85
2023-03-08T22:19:18.085Z,31.65
2023-03-08T22:21:50.014Z,34.47
2023-03-08T22:24:21.818Z,29.45
2023-03-08T22:26:53.534Z,26.33
2023-03-08T22:29:25.265Z,27.33
2023-03-08T22:31:59.600Z,21.35
2023-03-08T22:34:31.761Z,19.58
2023-03-08T22:37:06.697Z,23.30
2023-03-08T22:39:41.522Z,17.95
2023-03-08T22:42:15.661Z,21.42
2023-03-08T22:44:51.597Z,23.80
2023-03-08T22:47:26.557Z,20.23
2023-03-08T22:49:58.206Z,19.95
2023-03-08T22:52:29.985Z,19.38
2023-03-08T22:55:02.726Z,19.08
2023-03-08T22:57:34.138Z,16.13
2023-03-08T23:00:14.899Z,14.27
2023-03-08T23:02:49.937Z,16.38
2023-03-08T23:05:25.607Z,18.13
2023-03-08T23:07:56.805Z,15.85
2023-03-08T23:10:30.084Z,18.20
2023-03-08T23:13:02.704Z,18.98
2023-03-08T23:16:13.685Z,18.13
2023-03-08T23:19:02.648Z,20.45
2023-03-08T23:21:36.209Z,18.85
2023-03-08T23:27:41.599Z,20.23
2023-03-08T23:30:18.833Z,21.38
2023-03-08T23:32:50.586Z,19.05
2023-03-08T23:35:24.469Z,24.92
2023-03-08T23:37:56.677Z,22.85
2023-03-08T23:40:27.881Z,25.75
2023-03-08T23:42:59.502Z,28.90
2023-03-08T23:45:30.469Z,29.02
2023-03-08T23:48:03.347Z,29.40
2023-03-08T23:50:37.342Z,23.35
2023-03-08T23:53:09.889Z,23.15
2023-03-08T23:55:41.332Z,27.15
2023-03-08T23:58:13.256Z,25.45
